Summerfield, LA (71079)

11:02 AM CDT on May 26, 2015 (GMT -0500)
State Line in JC Town | | Change Station
CLOSE
Current Station
Personal Weather Station
Location: Junction City, LA
Elevation: 213 ft
Nearby Weather Stations

Elev 213 ft 33.01 °N, 92.72 °W | Updated 49 seconds ago

Partly Cloudy
Partly Cloudy
82.2 °F
Feels Like 85 °F
N
2.2
Wind Variable Wind from West
Gusts 4.7 mph

Today
High -- | Low -- °F
--% Chance of Precip.
Yesterday
High -- | Low -- °F
Precip. -- in
6:05 AM 8:10 PM
First Quarter, 59% visible
Pressure 30.04 in
Visibility 10.0 miles
Clouds Overcast 2000 ft
Heat Index 85 °F
Dew Point 67 °F
Humidity 61%
Rainfall 0.27 in
Snow Depth Not available.
UV 3 out of 12
Pollen .70 out of 12
Air Quality Not available.
Flu Activity Sporadic
METAR KELD 261553Z AUTO 22005KT 10SM OVC020 23/18 A3005 RMK AO2 SLP173 T02330183

More Conditions Fewer Conditions

Pressure 30.04 in
Visibility 10.0 miles
Clouds Overcast 2000 ft
Heat Index 85 °F
Dew Point 67 °F
Humidity 61%
Rainfall 0.27 in
Snow Depth Not available.
UV 3 out of 12
Pollen .70 out of 12
Air Quality Not available.
Flu Activity Sporadic
METAR KELD 261553Z AUTO 22005KT 10SM OVC020 23/18 A3005 RMK AO2 SLP173 T02330183

More Conditions Fewer Conditions

10-Day Weather Forecast

Almanac

Astronomy

May. 26, 2015 Rise Set
Actual Time
Civil Twilight
Nautical Twilight
Astronomical Twilight
Moon
Length of Visible Light
Length of Day
Tomorrow will be .
, % of the Moon is Illuminated

Today's Extremes

State Highs State Lows

Community

WunderPhotos

Upload Photos

1,824,375 photos uploaded!

WunderBlogs® & News

Nearby

Air Quality

  Air Quality AQ Index Pollutant
Not available.

Snow Depth

Station Depth Elevation

Earthquake Activity

City Distance Mag. Time & Date
Minimum magnitude displayed is 2.5.

Coastal Water Temperatures

Place Temperature

Stations

Nearby Weather Stations

Station Location Temp. Windchill Dew Point Humidity Wind Precip. Elev Updated Type